Airfield :
LOGIN :

Register | Disclaimer

   EN    FR    IT 

 










Legend :    VFR   Marginal VFR   IFR   Intensive IFR   Very Intensive IFR
Visi :
Ceiling :
>= 8 km
>= 3000ft
5 to 8 km
1000 to 3000 ft
1500m to 5 km
500 to 1000 ft
800 to 1500m
200 to 500 ft
< 800m
< 200 ft
Symbols :   Thunderstorms  Fog  Heavy snow  Heavy precipitations  Wind > 20 kt
SIGMETs :     Misc.  Thunderstorms  Icing  Turbulence  Mountain Waves  Volcanic Ashes







- Airport Elevation : 605 ft
- IATA code : BAY


LRBM - Tautii Magheraus

CURRENT METAR :
  • 121300Z 21005KT 9999 SCT045 04/M02 Q1016 R09/19//95

EXPIRED METARs :
  • 121230Z 16004KT 130V190 9999 BKN047 04/M02 Q1016 R09/19//95
  • 121200Z 16005KT 110V200 9999 SCT047 05/M02 Q1016 R09/19//95
  • 121130Z 10003KT 050V220 9999 SCT047 05/M02 Q1016 R09/19//95
  • 121100Z 09007KT 9999 SCT045 05/M02 Q1016 R09/19//95
  • 121030Z 12007KT 9999 SCT045 04/M02 Q1016 R09/19//95
  • 121000Z 10005KT 070V130 9999 SCT045 04/M02 Q1016 R09/19//95

TAF TAF LRBM
Valid from the 12 at 12:00 until the 12 at 21:00 UTC


121100Z 1212/1221 VRB04KT 9999 BKN040
No reported NOTAMs for that airfield.



MET'MAP, your aeronautical weather chart ! - Copyright ORBIFLY December 2007 - Disclaimer

ORBIFLY MET'MAP TEAM :

Programming & Development : Alexandra Zaïnal
Concept & Development : Baudouin d'Aumeries
Co-Development & Prog : Marc-Olivier Méhu
Technical & hardware support : Manuel Goepfert

Contact : metmap@orbifly.com




SOURCES & CREDITS :

   NOAA